sensor_id;sensor_type;location;lat;lon;timestamp;P1;durP1;ratioP1;P2;durP2;ratioP2
13421;SDS011;6782;55.904;13.396;2022-09-16T00:00:26;10.43;;;3.03;;
13421;SDS011;6782;55.904;13.396;2022-09-16T00:02:55;10.93;;;2.70;;
13421;SDS011;6782;55.904;13.396;2022-09-16T00:05:23;8.13;;;2.30;;
13421;SDS011;6782;55.904;13.396;2022-09-16T00:07:52;7.37;;;2.20;;
13421;SDS011;6782;55.904;13.396;2022-09-16T00:10:20;6.60;;;2.13;;
13421;SDS011;6782;55.904;13.396;2022-09-16T00:12:48;8.97;;;2.37;;
13421;SDS011;6782;55.904;13.396;2022-09-16T00:15:16;5.50;;;1.93;;
13421;SDS011;6782;55.904;13.396;2022-09-16T00:17:44;7.50;;;2.07;;
13421;SDS011;6782;55.904;13.396;2022-09-16T00:20:12;10.37;;;2.40;;
13421;SDS011;6782;55.904;13.396;2022-09-16T00:22:39;8.43;;;2.20;;
13421;SDS011;6782;55.904;13.396;2022-09-16T00:25:07;11.77;;;2.67;;
13421;SDS011;6782;55.904;13.396;2022-09-16T00:27:35;7.33;;;2.27;;
13421;SDS011;6782;55.904;13.396;2022-09-16T00:30:03;14.33;;;3.07;;
13421;SDS011;6782;55.904;13.396;2022-09-16T00:32:31;9.97;;;2.83;;
13421;SDS011;6782;55.904;13.396;2022-09-16T00:34:58;10.50;;;2.70;;
13421;SDS011;6782;55.904;13.396;2022-09-16T00:37:27;12.97;;;2.73;;
13421;SDS011;6782;55.904;13.396;2022-09-16T00:39:56;7.63;;;2.03;;
13421;SDS011;6782;55.904;13.396;2022-09-16T00:42:23;9.40;;;2.73;;
13421;SDS011;6782;55.904;13.396;2022-09-16T00:44:52;9.97;;;2.37;;
13421;SDS011;6782;55.904;13.396;2022-09-16T00:47:23;6.13;;;2.20;;
13421;SDS011;6782;55.904;13.396;2022-09-16T00:49:55;7.97;;;2.37;;
13421;SDS011;6782;55.904;13.396;2022-09-16T00:52:30;10.13;;;2.63;;
13421;SDS011;6782;55.904;13.396;2022-09-16T00:54:59;10.50;;;2.93;;
13421;SDS011;6782;55.904;13.396;2022-09-16T00:57:32;12.80;;;3.00;;
13421;SDS011;6782;55.904;13.396;2022-09-16T01:00:03;10.57;;;2.70;;
13421;SDS011;6782;55.904;13.396;2022-09-16T01:02:32;11.37;;;2.50;;
13421;SDS011;6782;55.904;13.396;2022-09-16T01:05:00;10.17;;;2.93;;
13421;SDS011;6782;55.904;13.396;2022-09-16T01:07:33;12.63;;;2.47;;
13421;SDS011;6782;55.904;13.396;2022-09-16T01:10:05;8.80;;;2.30;;
13421;SDS011;6782;55.904;13.396;2022-09-16T01:12:33;8.27;;;2.63;;
13421;SDS011;6782;55.904;13.396;2022-09-16T01:15:02;12.73;;;2.80;;
13421;SDS011;6782;55.904;13.396;2022-09-16T01:17:37;10.87;;;2.70;;
13421;SDS011;6782;55.904;13.396;2022-09-16T01:23:28;7.63;;;2.63;;
13421;SDS011;6782;55.904;13.396;2022-09-16T01:26:08;10.57;;;2.83;;
13421;SDS011;6782;55.904;13.396;2022-09-16T01:28:58;10.20;;;2.60;;
13421;SDS011;6782;55.904;13.396;2022-09-16T01:31:43;10.27;;;2.83;;
13421;SDS011;6782;55.904;13.396;2022-09-16T01:34:18;7.83;;;2.63;;
13421;SDS011;6782;55.904;13.396;2022-09-16T01:36:55;7.97;;;2.50;;
13421;SDS011;6782;55.904;13.396;2022-09-16T01:39:32;11.70;;;2.53;;
13421;SDS011;6782;55.904;13.396;2022-09-16T01:42:16;12.57;;;3.03;;
13421;SDS011;6782;55.904;13.396;2022-09-16T01:44:51;11.77;;;3.13;;
13421;SDS011;6782;55.904;13.396;2022-09-16T01:47:27;9.70;;;3.00;;
13421;SDS011;6782;55.904;13.396;2022-09-16T01:50:03;12.93;;;2.77;;
13421;SDS011;6782;55.904;13.396;2022-09-16T01:52:38;12.27;;;3.10;;
13421;SDS011;6782;55.904;13.396;2022-09-16T01:55:14;12.23;;;2.50;;
13421;SDS011;6782;55.904;13.396;2022-09-16T01:57:49;11.03;;;2.70;;
13421;SDS011;6782;55.904;13.396;2022-09-16T02:00:22;14.30;;;3.00;;
13421;SDS011;6782;55.904;13.396;2022-09-16T02:02:52;11.97;;;2.90;;
13421;SDS011;6782;55.904;13.396;2022-09-16T02:05:24;9.93;;;2.77;;
13421;SDS011;6782;55.904;13.396;2022-09-16T02:07:57;10.77;;;2.63;;
13421;SDS011;6782;55.904;13.396;2022-09-16T02:10:30;12.77;;;3.40;;
13421;SDS011;6782;55.904;13.396;2022-09-16T02:13:07;11.77;;;2.80;;
13421;SDS011;6782;55.904;13.396;2022-09-16T02:15:39;8.87;;;2.27;;
13421;SDS011;6782;55.904;13.396;2022-09-16T02:18:12;10.70;;;2.43;;
13421;SDS011;6782;55.904;13.396;2022-09-16T02:20:47;11.50;;;2.43;;
13421;SDS011;6782;55.904;13.396;2022-09-16T02:23:20;9.20;;;2.77;;
13421;SDS011;6782;55.904;13.396;2022-09-16T02:25:52;11.20;;;2.60;;
13421;SDS011;6782;55.904;13.396;2022-09-16T02:28:22;8.90;;;2.40;;
13421;SDS011;6782;55.904;13.396;2022-09-16T02:30:53;12.77;;;2.80;;
13421;SDS011;6782;55.904;13.396;2022-09-16T02:33:26;10.73;;;3.03;;
13421;SDS011;6782;55.904;13.396;2022-09-16T02:35:59;11.07;;;3.13;;
13421;SDS011;6782;55.904;13.396;2022-09-16T02:38:31;11.37;;;3.13;;
13421;SDS011;6782;55.904;13.396;2022-09-16T02:41:03;10.90;;;2.50;;
13421;SDS011;6782;55.904;13.396;2022-09-16T02:43:31;7.67;;;2.40;;
13421;SDS011;6782;55.904;13.396;2022-09-16T02:46:02;9.03;;;2.20;;
13421;SDS011;6782;55.904;13.396;2022-09-16T02:48:42;9.87;;;2.37;;
13421;SDS011;6782;55.904;13.396;2022-09-16T02:51:22;7.10;;;2.23;;
13421;SDS011;6782;55.904;13.396;2022-09-16T02:54:00;8.27;;;2.40;;
13421;SDS011;6782;55.904;13.396;2022-09-16T02:56:32;8.33;;;2.70;;
13421;SDS011;6782;55.904;13.396;2022-09-16T02:59:03;9.53;;;2.57;;
13421;SDS011;6782;55.904;13.396;2022-09-16T03:01:35;8.47;;;2.37;;
13421;SDS011;6782;55.904;13.396;2022-09-16T03:04:08;8.03;;;2.87;;
13421;SDS011;6782;55.904;13.396;2022-09-16T03:06:36;11.13;;;2.60;;
13421;SDS011;6782;55.904;13.396;2022-09-16T03:09:04;9.20;;;2.10;;
13421;SDS011;6782;55.904;13.396;2022-09-16T03:11:49;6.63;;;1.67;;
13421;SDS011;6782;55.904;13.396;2022-09-16T03:14:36;9.37;;;2.50;;
13421;SDS011;6782;55.904;13.396;2022-09-16T03:17:27;7.43;;;2.30;;
13421;SDS011;6782;55.904;13.396;2022-09-16T03:20:07;11.00;;;2.53;;
13421;SDS011;6782;55.904;13.396;2022-09-16T03:22:46;7.07;;;1.70;;
13421;SDS011;6782;55.904;13.396;2022-09-16T03:25:21;8.07;;;1.90;;
13421;SDS011;6782;55.904;13.396;2022-09-16T03:27:59;5.73;;;1.97;;
13421;SDS011;6782;55.904;13.396;2022-09-16T03:30:30;6.60;;;1.90;;
13421;SDS011;6782;55.904;13.396;2022-09-16T03:33:03;7.47;;;2.10;;
13421;SDS011;6782;55.904;13.396;2022-09-16T03:35:39;6.70;;;2.10;;
13421;SDS011;6782;55.904;13.396;2022-09-16T03:38:10;9.80;;;2.00;;
13421;SDS011;6782;55.904;13.396;2022-09-16T03:40:39;6.67;;;2.23;;
13421;SDS011;6782;55.904;13.396;2022-09-16T03:43:09;6.47;;;1.77;;
13421;SDS011;6782;55.904;13.396;2022-09-16T03:45:38;7.90;;;2.10;;
13421;SDS011;6782;55.904;13.396;2022-09-16T03:48:07;6.30;;;2.20;;
13421;SDS011;6782;55.904;13.396;2022-09-16T03:50:37;6.83;;;2.00;;
13421;SDS011;6782;55.904;13.396;2022-09-16T03:53:06;8.70;;;2.10;;
13421;SDS011;6782;55.904;13.396;2022-09-16T03:55:33;6.17;;;1.97;;
13421;SDS011;6782;55.904;13.396;2022-09-16T03:58:01;8.43;;;2.40;;
13421;SDS011;6782;55.904;13.396;2022-09-16T04:00:28;10.17;;;2.57;;
13421;SDS011;6782;55.904;13.396;2022-09-16T04:02:55;6.70;;;2.20;;
13421;SDS011;6782;55.904;13.396;2022-09-16T04:05:24;6.30;;;2.00;;
13421;SDS011;6782;55.904;13.396;2022-09-16T04:07:53;6.87;;;2.10;;
13421;SDS011;6782;55.904;13.396;2022-09-16T04:10:21;8.37;;;2.20;;
13421;SDS011;6782;55.904;13.396;2022-09-16T04:12:48;6.13;;;2.20;;
13421;SDS011;6782;55.904;13.396;2022-09-16T04:15:16;5.73;;;2.47;;
13421;SDS011;6782;55.904;13.396;2022-09-16T04:17:43;8.27;;;1.97;;
13421;SDS011;6782;55.904;13.396;2022-09-16T04:20:10;6.00;;;2.20;;
13421;SDS011;6782;55.904;13.396;2022-09-16T04:22:37;6.03;;;2.00;;
13421;SDS011;6782;55.904;13.396;2022-09-16T04:25:07;8.73;;;2.47;;
13421;SDS011;6782;55.904;13.396;2022-09-16T04:27:35;6.83;;;2.13;;
13421;SDS011;6782;55.904;13.396;2022-09-16T04:30:03;5.20;;;2.50;;
13421;SDS011;6782;55.904;13.396;2022-09-16T04:32:31;5.93;;;2.33;;
13421;SDS011;6782;55.904;13.396;2022-09-16T04:34:58;5.33;;;1.83;;
13421;SDS011;6782;55.904;13.396;2022-09-16T04:37:28;6.73;;;2.03;;
13421;SDS011;6782;55.904;13.396;2022-09-16T04:39:56;4.47;;;1.93;;
13421;SDS011;6782;55.904;13.396;2022-09-16T04:42:24;7.97;;;2.00;;
13421;SDS011;6782;55.904;13.396;2022-09-16T04:44:52;9.10;;;2.70;;
13421;SDS011;6782;55.904;13.396;2022-09-16T04:47:20;5.93;;;1.87;;
13421;SDS011;6782;55.904;13.396;2022-09-16T04:49:47;8.37;;;2.00;;
13421;SDS011;6782;55.904;13.396;2022-09-16T04:52:15;8.03;;;2.13;;
13421;SDS011;6782;55.904;13.396;2022-09-16T04:54:42;7.67;;;2.50;;
13421;SDS011;6782;55.904;13.396;2022-09-16T04:57:10;5.17;;;2.10;;
13421;SDS011;6782;55.904;13.396;2022-09-16T04:59:39;8.30;;;2.27;;
13421;SDS011;6782;55.904;13.396;2022-09-16T05:02:06;8.13;;;2.53;;
13421;SDS011;6782;55.904;13.396;2022-09-16T05:04:33;6.63;;;2.23;;
13421;SDS011;6782;55.904;13.396;2022-09-16T05:07:00;9.47;;;1.97;;
13421;SDS011;6782;55.904;13.396;2022-09-16T05:09:27;6.57;;;1.90;;
13421;SDS011;6782;55.904;13.396;2022-09-16T05:11:54;8.63;;;2.10;;
13421;SDS011;6782;55.904;13.396;2022-09-16T05:14:21;6.80;;;2.10;;
13421;SDS011;6782;55.904;13.396;2022-09-16T05:16:50;9.80;;;2.10;;
13421;SDS011;6782;55.904;13.396;2022-09-16T05:19:18;6.13;;;1.83;;
13421;SDS011;6782;55.904;13.396;2022-09-16T05:21:48;6.73;;;2.00;;
13421;SDS011;6782;55.904;13.396;2022-09-16T05:24:15;9.53;;;2.10;;
13421;SDS011;6782;55.904;13.396;2022-09-16T05:26:43;5.37;;;1.73;;
13421;SDS011;6782;55.904;13.396;2022-09-16T05:29:12;8.20;;;1.80;;
13421;SDS011;6782;55.904;13.396;2022-09-16T05:31:42;9.57;;;1.97;;
13421;SDS011;6782;55.904;13.396;2022-09-16T05:34:19;8.90;;;2.17;;
13421;SDS011;6782;55.904;13.396;2022-09-16T05:36:53;8.37;;;2.10;;
13421;SDS011;6782;55.904;13.396;2022-09-16T05:39:22;8.07;;;2.13;;
13421;SDS011;6782;55.904;13.396;2022-09-16T05:41:52;8.43;;;2.57;;
13421;SDS011;6782;55.904;13.396;2022-09-16T05:44:20;6.43;;;1.90;;
13421;SDS011;6782;55.904;13.396;2022-09-16T05:46:48;9.53;;;2.27;;
13421;SDS011;6782;55.904;13.396;2022-09-16T05:49:36;7.60;;;2.10;;
13421;SDS011;6782;55.904;13.396;2022-09-16T05:52:21;4.23;;;1.90;;
13421;SDS011;6782;55.904;13.396;2022-09-16T05:55:10;6.33;;;1.90;;
13421;SDS011;6782;55.904;13.396;2022-09-16T05:57:57;10.33;;;2.20;;
13421;SDS011;6782;55.904;13.396;2022-09-16T06:00:44;7.27;;;2.20;;
13421;SDS011;6782;55.904;13.396;2022-09-16T06:03:32;8.10;;;1.90;;
13421;SDS011;6782;55.904;13.396;2022-09-16T06:06:22;8.23;;;1.77;;
13421;SDS011;6782;55.904;13.396;2022-09-16T06:09:11;5.37;;;1.90;;
13421;SDS011;6782;55.904;13.396;2022-09-16T06:12:01;6.37;;;1.80;;
13421;SDS011;6782;55.904;13.396;2022-09-16T06:14:28;5.37;;;1.70;;
13421;SDS011;6782;55.904;13.396;2022-09-16T06:16:55;7.47;;;2.57;;
13421;SDS011;6782;55.904;13.396;2022-09-16T06:19:23;6.27;;;1.73;;
13421;SDS011;6782;55.904;13.396;2022-09-16T06:21:52;4.87;;;1.70;;
13421;SDS011;6782;55.904;13.396;2022-09-16T06:24:19;6.43;;;1.60;;
13421;SDS011;6782;55.904;13.396;2022-09-16T06:26:47;6.43;;;1.67;;
13421;SDS011;6782;55.904;13.396;2022-09-16T06:29:15;7.37;;;1.60;;
13421;SDS011;6782;55.904;13.396;2022-09-16T06:31:43;5.00;;;1.60;;
13421;SDS011;6782;55.904;13.396;2022-09-16T06:34:12;4.93;;;1.93;;
13421;SDS011;6782;55.904;13.396;2022-09-16T06:36:43;5.30;;;1.73;;
13421;SDS011;6782;55.904;13.396;2022-09-16T06:39:13;8.33;;;2.20;;
13421;SDS011;6782;55.904;13.396;2022-09-16T06:41:42;5.97;;;1.70;;
13421;SDS011;6782;55.904;13.396;2022-09-16T06:44:10;6.20;;;1.77;;
13421;SDS011;6782;55.904;13.396;2022-09-16T06:46:38;7.77;;;1.57;;
13421;SDS011;6782;55.904;13.396;2022-09-16T06:49:05;7.13;;;1.70;;
13421;SDS011;6782;55.904;13.396;2022-09-16T06:51:33;7.83;;;1.73;;
13421;SDS011;6782;55.904;13.396;2022-09-16T06:54:02;5.17;;;1.37;;
13421;SDS011;6782;55.904;13.396;2022-09-16T06:56:35;2.70;;;1.20;;
13421;SDS011;6782;55.904;13.396;2022-09-16T06:59:03;4.27;;;1.40;;
13421;SDS011;6782;55.904;13.396;2022-09-16T07:01:31;3.50;;;1.30;;
13421;SDS011;6782;55.904;13.396;2022-09-16T07:04:00;3.60;;;1.30;;
13421;SDS011;6782;55.904;13.396;2022-09-16T07:06:30;6.27;;;1.33;;
13421;SDS011;6782;55.904;13.396;2022-09-16T07:08:58;6.13;;;1.50;;
13421;SDS011;6782;55.904;13.396;2022-09-16T07:11:26;4.03;;;1.40;;
13421;SDS011;6782;55.904;13.396;2022-09-16T07:13:55;3.30;;;1.37;;
13421;SDS011;6782;55.904;13.396;2022-09-16T07:16:24;2.83;;;1.40;;
13421;SDS011;6782;55.904;13.396;2022-09-16T07:18:52;3.77;;;1.30;;
13421;SDS011;6782;55.904;13.396;2022-09-16T07:21:22;1.90;;;1.43;;
13421;SDS011;6782;55.904;13.396;2022-09-16T07:23:53;6.70;;;1.60;;
13421;SDS011;6782;55.904;13.396;2022-09-16T07:26:22;5.00;;;1.70;;
13421;SDS011;6782;55.904;13.396;2022-09-16T07:28:52;3.50;;;1.40;;
13421;SDS011;6782;55.904;13.396;2022-09-16T07:31:22;6.07;;;1.77;;
13421;SDS011;6782;55.904;13.396;2022-09-16T07:33:51;5.82;;;1.60;;
13421;SDS011;6782;55.904;13.396;2022-09-16T07:36:20;3.30;;;1.50;;
13421;SDS011;6782;55.904;13.396;2022-09-16T07:38:49;3.37;;;1.30;;
13421;SDS011;6782;55.904;13.396;2022-09-16T07:41:19;5.20;;;1.45;;
13421;SDS011;6782;55.904;13.396;2022-09-16T07:43:49;3.10;;;1.08;;
13421;SDS011;6782;55.904;13.396;2022-09-16T07:46:18;4.30;;;1.40;;
13421;SDS011;6782;55.904;13.396;2022-09-16T07:48:47;1.80;;;1.20;;
13421;SDS011;6782;55.904;13.396;2022-09-16T07:51:17;1.95;;;1.08;;
13421;SDS011;6782;55.904;13.396;2022-09-16T07:53:46;4.30;;;1.42;;
13421;SDS011;6782;55.904;13.396;2022-09-16T07:56:14;2.78;;;1.23;;
13421;SDS011;6782;55.904;13.396;2022-09-16T07:58:42;3.60;;;1.27;;
13421;SDS011;6782;55.904;13.396;2022-09-16T08:01:12;3.90;;;1.08;;
13421;SDS011;6782;55.904;13.396;2022-09-16T08:03:43;3.08;;;1.27;;
13421;SDS011;6782;55.904;13.396;2022-09-16T08:06:12;3.65;;;1.00;;
13421;SDS011;6782;55.904;13.396;2022-09-16T08:08:41;3.92;;;1.27;;
13421;SDS011;6782;55.904;13.396;2022-09-16T08:11:09;2.58;;;1.20;;
13421;SDS011;6782;55.904;13.396;2022-09-16T08:13:39;2.60;;;1.27;;
13421;SDS011;6782;55.904;13.396;2022-09-16T08:16:08;2.58;;;1.20;;
13421;SDS011;6782;55.904;13.396;2022-09-16T08:18:37;1.45;;;0.93;;
13421;SDS011;6782;55.904;13.396;2022-09-16T08:21:08;2.67;;;1.10;;
13421;SDS011;6782;55.904;13.396;2022-09-16T08:23:37;1.73;;;0.95;;
13421;SDS011;6782;55.904;13.396;2022-09-16T08:26:05;1.52;;;0.80;;
13421;SDS011;6782;55.904;13.396;2022-09-16T08:28:35;2.05;;;1.00;;
13421;SDS011;6782;55.904;13.396;2022-09-16T08:31:04;1.75;;;1.00;;
13421;SDS011;6782;55.904;13.396;2022-09-16T08:33:31;2.47;;;1.58;;
13421;SDS011;6782;55.904;13.396;2022-09-16T08:35:59;2.30;;;1.10;;
13421;SDS011;6782;55.904;13.396;2022-09-16T08:38:28;1.90;;;1.30;;
13421;SDS011;6782;55.904;13.396;2022-09-16T08:40:59;1.77;;;1.30;;
13421;SDS011;6782;55.904;13.396;2022-09-16T08:43:33;2.17;;;1.15;;
13421;SDS011;6782;55.904;13.396;2022-09-16T08:46:06;1.02;;;1.00;;
13421;SDS011;6782;55.904;13.396;2022-09-16T08:48:40;3.75;;;1.52;;
13421;SDS011;6782;55.904;13.396;2022-09-16T08:51:14;1.85;;;1.08;;
13421;SDS011;6782;55.904;13.396;2022-09-16T08:53:46;3.47;;;1.20;;
13421;SDS011;6782;55.904;13.396;2022-09-16T08:56:20;1.13;;;0.98;;
13421;SDS011;6782;55.904;13.396;2022-09-16T08:58:51;1.30;;;1.00;;
13421;SDS011;6782;55.904;13.396;2022-09-16T09:01:23;1.45;;;0.90;;
13421;SDS011;6782;55.904;13.396;2022-09-16T09:03:57;1.63;;;1.02;;
13421;SDS011;6782;55.904;13.396;2022-09-16T09:06:45;1.52;;;1.00;;
13421;SDS011;6782;55.904;13.396;2022-09-16T09:09:28;1.75;;;0.98;;
13421;SDS011;6782;55.904;13.396;2022-09-16T09:12:06;1.45;;;0.80;;
13421;SDS011;6782;55.904;13.396;2022-09-16T09:14:42;0.90;;;0.90;;
13421;SDS011;6782;55.904;13.396;2022-09-16T09:17:29;1.23;;;0.63;;
13421;SDS011;6782;55.904;13.396;2022-09-16T09:20:08;1.25;;;0.60;;
13421;SDS011;6782;55.904;13.396;2022-09-16T09:22:56;0.77;;;0.77;;
13421;SDS011;6782;55.904;13.396;2022-09-16T09:25:35;0.80;;;0.70;;
13421;SDS011;6782;55.904;13.396;2022-09-16T09:28:15;0.93;;;0.65;;
13421;SDS011;6782;55.904;13.396;2022-09-16T09:30:59;1.27;;;0.80;;
13421;SDS011;6782;55.904;13.396;2022-09-16T09:33:33;0.70;;;0.70;;
13421;SDS011;6782;55.904;13.396;2022-09-16T09:36:19;1.05;;;0.90;;
13421;SDS011;6782;55.904;13.396;2022-09-16T09:39:11;0.80;;;0.80;;
13421;SDS011;6782;55.904;13.396;2022-09-16T09:41:59;0.88;;;0.80;;
13421;SDS011;6782;55.904;13.396;2022-09-16T09:44:38;1.80;;;0.75;;
13421;SDS011;6782;55.904;13.396;2022-09-16T09:47:15;2.55;;;1.05;;
13421;SDS011;6782;55.904;13.396;2022-09-16T09:49:48;1.70;;;0.73;;
13421;SDS011;6782;55.904;13.396;2022-09-16T09:52:20;1.83;;;0.85;;
13421;SDS011;6782;55.904;13.396;2022-09-16T09:54:52;0.70;;;0.70;;
13421;SDS011;6782;55.904;13.396;2022-09-16T09:57:24;0.88;;;0.73;;
13421;SDS011;6782;55.904;13.396;2022-09-16T10:00:03;1.40;;;0.68;;
13421;SDS011;6782;55.904;13.396;2022-09-16T10:02:38;2.40;;;0.80;;
13421;SDS011;6782;55.904;13.396;2022-09-16T10:05:09;1.67;;;0.82;;
13421;SDS011;6782;55.904;13.396;2022-09-16T10:07:48;1.25;;;0.80;;
13421;SDS011;6782;55.904;13.396;2022-09-16T10:10:19;1.05;;;0.73;;
13421;SDS011;6782;55.904;13.396;2022-09-16T10:12:52;1.33;;;0.63;;
13421;SDS011;6782;55.904;13.396;2022-09-16T10:15:20;2.22;;;1.13;;
13421;SDS011;6782;55.904;13.396;2022-09-16T10:17:50;1.38;;;0.70;;
13421;SDS011;6782;55.904;13.396;2022-09-16T10:20:24;0.60;;;0.60;;
13421;SDS011;6782;55.904;13.396;2022-09-16T10:22:56;2.63;;;0.95;;
13421;SDS011;6782;55.904;13.396;2022-09-16T10:25:26;1.63;;;0.80;;
13421;SDS011;6782;55.904;13.396;2022-09-16T10:27:58;0.73;;;0.70;;
13421;SDS011;6782;55.904;13.396;2022-09-16T10:30:27;2.85;;;1.10;;
13421;SDS011;6782;55.904;13.396;2022-09-16T10:32:59;2.83;;;1.02;;
13421;SDS011;6782;55.904;13.396;2022-09-16T10:35:31;1.33;;;1.02;;
13421;SDS011;6782;55.904;13.396;2022-09-16T10:38:01;1.88;;;1.02;;
13421;SDS011;6782;55.904;13.396;2022-09-16T10:40:31;1.55;;;1.08;;
13421;SDS011;6782;55.904;13.396;2022-09-16T10:43:02;2.13;;;1.15;;
13421;SDS011;6782;55.904;13.396;2022-09-16T10:45:33;1.92;;;1.00;;
13421;SDS011;6782;55.904;13.396;2022-09-16T10:48:03;1.63;;;1.00;;
13421;SDS011;6782;55.904;13.396;2022-09-16T10:50:37;1.88;;;1.00;;
13421;SDS011;6782;55.904;13.396;2022-09-16T10:53:18;0.95;;;0.77;;
13421;SDS011;6782;55.904;13.396;2022-09-16T10:55:55;1.85;;;1.00;;
13421;SDS011;6782;55.904;13.396;2022-09-16T10:58:26;1.27;;;0.88;;
13421;SDS011;6782;55.904;13.396;2022-09-16T11:00:57;1.20;;;1.00;;
13421;SDS011;6782;55.904;13.396;2022-09-16T11:07:02;1.40;;;1.20;;
13421;SDS011;6782;55.904;13.396;2022-09-16T11:09:40;2.05;;;1.02;;
13421;SDS011;6782;55.904;13.396;2022-09-16T11:12:39;1.63;;;0.93;;
13421;SDS011;6782;55.904;13.396;2022-09-16T11:15:49;2.60;;;1.17;;
13421;SDS011;6782;55.904;13.396;2022-09-16T11:18:47;1.80;;;0.90;;
13421;SDS011;6782;55.904;13.396;2022-09-16T11:27:54;2.33;;;1.02;;
13421;SDS011;6782;55.904;13.396;2022-09-16T11:30:32;2.85;;;1.50;;
13421;SDS011;6782;55.904;13.396;2022-09-16T11:33:12;2.63;;;1.25;;
13421;SDS011;6782;55.904;13.396;2022-09-16T11:36:06;1.67;;;1.00;;
13421;SDS011;6782;55.904;13.396;2022-09-16T11:38:46;1.00;;;0.70;;
13421;SDS011;6782;55.904;13.396;2022-09-16T11:41:21;1.25;;;1.00;;
13421;SDS011;6782;55.904;13.396;2022-09-16T11:47:04;1.70;;;1.08;;
13421;SDS011;6782;55.904;13.396;2022-09-16T11:49:54;0.80;;;0.75;;
13421;SDS011;6782;55.904;13.396;2022-09-16T11:52:47;1.40;;;1.00;;
13421;SDS011;6782;55.904;13.396;2022-09-16T11:55:32;1.33;;;1.08;;
13421;SDS011;6782;55.904;13.396;2022-09-16T11:58:13;2.45;;;0.98;;
13421;SDS011;6782;55.904;13.396;2022-09-16T12:00:48;2.22;;;0.98;;
13421;SDS011;6782;55.904;13.396;2022-09-16T12:03:19;2.08;;;0.93;;
13421;SDS011;6782;55.904;13.396;2022-09-16T12:05:57;1.25;;;0.93;;
13421;SDS011;6782;55.904;13.396;2022-09-16T12:08:31;3.28;;;1.25;;
13421;SDS011;6782;55.904;13.396;2022-09-16T12:11:11;3.05;;;1.50;;
13421;SDS011;6782;55.904;13.396;2022-09-16T12:13:48;1.80;;;0.90;;
13421;SDS011;6782;55.904;13.396;2022-09-16T12:16:20;4.38;;;1.10;;
13421;SDS011;6782;55.904;13.396;2022-09-16T12:18:55;1.48;;;0.85;;
13421;SDS011;6782;55.904;13.396;2022-09-16T12:21:28;1.10;;;0.80;;
13421;SDS011;6782;55.904;13.396;2022-09-16T12:24:02;1.45;;;0.93;;
13421;SDS011;6782;55.904;13.396;2022-09-16T12:26:33;1.80;;;1.17;;
13421;SDS011;6782;55.904;13.396;2022-09-16T12:29:07;1.42;;;0.80;;
13421;SDS011;6782;55.904;13.396;2022-09-16T12:31:41;1.10;;;1.00;;
13421;SDS011;6782;55.904;13.396;2022-09-16T12:34:12;3.30;;;1.15;;
13421;SDS011;6782;55.904;13.396;2022-09-16T12:36:47;3.53;;;1.35;;
13421;SDS011;6782;55.904;13.396;2022-09-16T12:39:21;1.98;;;1.20;;
13421;SDS011;6782;55.904;13.396;2022-09-16T12:42:03;1.90;;;1.17;;
13421;SDS011;6782;55.904;13.396;2022-09-16T12:50:53;4.73;;;1.70;;
13421;SDS011;6782;55.904;13.396;2022-09-16T12:53:54;4.50;;;1.57;;
13421;SDS011;6782;55.904;13.396;2022-09-16T12:56:39;4.40;;;1.67;;
13421;SDS011;6782;55.904;13.396;2022-09-16T12:59:26;2.03;;;1.50;;
13421;SDS011;6782;55.904;13.396;2022-09-16T13:02:09;4.00;;;1.50;;
13421;SDS011;6782;55.904;13.396;2022-09-16T13:04:42;2.43;;;1.73;;
13421;SDS011;6782;55.904;13.396;2022-09-16T13:07:18;3.03;;;1.50;;
13421;SDS011;6782;55.904;13.396;2022-09-16T13:09:59;2.37;;;1.00;;
13421;SDS011;6782;55.904;13.396;2022-09-16T13:12:28;3.37;;;1.10;;
13421;SDS011;6782;55.904;13.396;2022-09-16T13:14:57;3.80;;;1.60;;
13421;SDS011;6782;55.904;13.396;2022-09-16T13:17:28;1.07;;;0.97;;
13421;SDS011;6782;55.904;13.396;2022-09-16T13:19:59;2.07;;;0.90;;
13421;SDS011;6782;55.904;13.396;2022-09-16T13:22:33;1.80;;;1.10;;
13421;SDS011;6782;55.904;13.396;2022-09-16T13:25:11;1.10;;;1.00;;
13421;SDS011;6782;55.904;13.396;2022-09-16T13:27:53;2.30;;;1.00;;
13421;SDS011;6782;55.904;13.396;2022-09-16T13:30:30;1.63;;;1.03;;
13421;SDS011;6782;55.904;13.396;2022-09-16T13:33:02;1.87;;;1.10;;
13421;SDS011;6782;55.904;13.396;2022-09-16T13:35:45;1.47;;;1.00;;
13421;SDS011;6782;55.904;13.396;2022-09-16T13:38:23;1.70;;;1.00;;
13421;SDS011;6782;55.904;13.396;2022-09-16T13:41:05;2.53;;;1.63;;
13421;SDS011;6782;55.904;13.396;2022-09-16T13:43:36;3.53;;;1.00;;
13421;SDS011;6782;55.904;13.396;2022-09-16T13:46:25;2.00;;;0.80;;
13421;SDS011;6782;55.904;13.396;2022-09-16T13:48:55;2.03;;;1.00;;
13421;SDS011;6782;55.904;13.396;2022-09-16T13:51:30;0.80;;;0.80;;
13421;SDS011;6782;55.904;13.396;2022-09-16T13:54:00;1.83;;;0.90;;
13421;SDS011;6782;55.904;13.396;2022-09-16T13:56:37;1.63;;;1.17;;
13421;SDS011;6782;55.904;13.396;2022-09-16T13:59:22;1.83;;;0.87;;
13421;SDS011;6782;55.904;13.396;2022-09-16T14:02:08;1.03;;;0.80;;
13421;SDS011;6782;55.904;13.396;2022-09-16T14:07:38;1.10;;;1.00;;
13421;SDS011;6782;55.904;13.396;2022-09-16T14:10:15;1.20;;;1.00;;
13421;SDS011;6782;55.904;13.396;2022-09-16T14:12:52;3.77;;;1.20;;
13421;SDS011;6782;55.904;13.396;2022-09-16T14:15:25;1.17;;;1.07;;
13421;SDS011;6782;55.904;13.396;2022-09-16T14:17:57;1.57;;;0.90;;
13421;SDS011;6782;55.904;13.396;2022-09-16T14:20:28;1.20;;;1.00;;
13421;SDS011;6782;55.904;13.396;2022-09-16T14:23:00;1.70;;;0.90;;
13421;SDS011;6782;55.904;13.396;2022-09-16T14:25:29;1.30;;;0.80;;
13421;SDS011;6782;55.904;13.396;2022-09-16T14:28:07;3.35;;;1.00;;
13421;SDS011;6782;55.904;13.396;2022-09-16T14:30:46;3.47;;;0.85;;
13421;SDS011;6782;55.904;13.396;2022-09-16T14:33:16;1.10;;;1.00;;
13421;SDS011;6782;55.904;13.396;2022-09-16T14:35:47;1.73;;;1.02;;
13421;SDS011;6782;55.904;13.396;2022-09-16T14:38:18;1.85;;;1.10;;
13421;SDS011;6782;55.904;13.396;2022-09-16T14:40:48;1.92;;;1.02;;
13421;SDS011;6782;55.904;13.396;2022-09-16T14:43:18;3.08;;;0.95;;
13421;SDS011;6782;55.904;13.396;2022-09-16T14:45:48;1.77;;;0.90;;
13421;SDS011;6782;55.904;13.396;2022-09-16T14:48:26;1.85;;;1.02;;
13421;SDS011;6782;55.904;13.396;2022-09-16T14:50:57;1.88;;;0.90;;
13421;SDS011;6782;55.904;13.396;2022-09-16T14:53:27;1.92;;;1.10;;
13421;SDS011;6782;55.904;13.396;2022-09-16T14:55:55;2.72;;;1.15;;
13421;SDS011;6782;55.904;13.396;2022-09-16T14:58:25;1.23;;;0.80;;
13421;SDS011;6782;55.904;13.396;2022-09-16T15:00:55;3.28;;;1.55;;
13421;SDS011;6782;55.904;13.396;2022-09-16T15:03:29;4.45;;;2.63;;
13421;SDS011;6782;55.904;13.396;2022-09-16T15:06:10;2.05;;;1.25;;
13421;SDS011;6782;55.904;13.396;2022-09-16T15:08:43;2.45;;;0.90;;
13421;SDS011;6782;55.904;13.396;2022-09-16T15:11:16;2.50;;;1.30;;
13421;SDS011;6782;55.904;13.396;2022-09-16T15:13:49;2.65;;;1.08;;
13421;SDS011;6782;55.904;13.396;2022-09-16T15:16:19;2.20;;;1.08;;
13421;SDS011;6782;55.904;13.396;2022-09-16T15:18:51;2.63;;;1.27;;
13421;SDS011;6782;55.904;13.396;2022-09-16T15:21:21;3.78;;;1.23;;
13421;SDS011;6782;55.904;13.396;2022-09-16T15:23:53;2.85;;;1.35;;
13421;SDS011;6782;55.904;13.396;2022-09-16T15:26:23;2.13;;;1.10;;
13421;SDS011;6782;55.904;13.396;2022-09-16T15:28:56;6.15;;;1.20;;
13421;SDS011;6782;55.904;13.396;2022-09-16T15:31:31;2.17;;;1.20;;
13421;SDS011;6782;55.904;13.396;2022-09-16T15:34:02;3.05;;;1.15;;
13421;SDS011;6782;55.904;13.396;2022-09-16T15:36:40;4.45;;;1.40;;
13421;SDS011;6782;55.904;13.396;2022-09-16T15:39:20;4.78;;;1.65;;
13421;SDS011;6782;55.904;13.396;2022-09-16T15:41:49;3.85;;;1.50;;
13421;SDS011;6782;55.904;13.396;2022-09-16T15:44:32;3.97;;;1.40;;
13421;SDS011;6782;55.904;13.396;2022-09-16T15:47:00;3.03;;;1.48;;